Vera, Texas
Current Conditions -  °F | °C
As of 7:55 AM on Wednesday 28 Jan 2015 (Local Time) from KF05 Reporting Station
Scattered Clouds Scattered Clouds  
Wind Chill: 37°   Ceiling: Unl
Heat Index: 42°   Visibility: 10mi
Dew Point: 33°   Wind: 8mph
Humidity: 70%   Direction: 220°SW
Pressure: 30.05"   Gusts: NA
Location:  33.6337°N, 99.8039°W
Report Text: KF05 281355Z AUTO 22007KT 10SM SCT110 06/01 A3005 RMK AO1 T00560006
Loading
Personal Weather Stations






























Interactive Weather Map New forecast layout! Learn more

10-Day Weather Forecast

Advertisements
Track Severe Weather on mobile